createdAt,value
2018-08-06T00:01:23.863Z,12.50
2018-08-06T00:03:55.215Z,13.60
2018-08-06T00:06:26.661Z,13.40
2018-08-06T00:08:58.115Z,11.93
2018-08-06T00:11:29.875Z,12.70
2018-08-06T00:14:01.415Z,12.65
2018-08-06T00:16:33.064Z,13.53
2018-08-06T00:19:04.438Z,14.30
2018-08-06T00:21:35.999Z,14.05
2018-08-06T00:24:07.588Z,14.15
2018-08-06T00:26:39.060Z,13.28
2018-08-06T00:29:10.753Z,13.78
2018-08-06T00:31:42.359Z,14.05
2018-08-06T00:34:13.669Z,13.22
2018-08-06T00:36:45.508Z,13.88
2018-08-06T00:39:17.114Z,12.20
2018-08-06T00:41:48.554Z,13.40
2018-08-06T00:44:19.926Z,12.20
2018-08-06T00:46:51.394Z,12.10
2018-08-06T00:49:22.833Z,12.90
2018-08-06T00:51:54.200Z,12.85
2018-08-06T00:54:25.771Z,11.93
2018-08-06T00:56:57.425Z,12.10
2018-08-06T00:59:28.854Z,13.72
2018-08-06T01:02:00.736Z,12.65
2018-08-06T01:04:32.099Z,12.53
2018-08-06T01:07:03.642Z,12.80
2018-08-06T01:09:34.996Z,13.70
2018-08-06T01:12:06.899Z,12.80
2018-08-06T01:14:38.698Z,12.55
2018-08-06T01:17:10.476Z,12.37
2018-08-06T01:19:41.975Z,13.18
2018-08-06T01:22:13.540Z,12.25
2018-08-06T01:24:45.081Z,12.65
2018-08-06T01:27:16.580Z,12.43
2018-08-06T01:29:48.391Z,12.63
2018-08-06T01:32:19.895Z,13.50
2018-08-06T01:34:51.627Z,12.68
2018-08-06T01:37:23.115Z,11.90
2018-08-06T01:39:54.639Z,12.95
2018-08-06T01:42:26.015Z,13.28
2018-08-06T01:44:57.539Z,12.93
2018-08-06T01:47:29.178Z,12.88
2018-08-06T01:50:00.717Z,13.22
2018-08-06T01:52:32.182Z,12.50
2018-08-06T01:55:03.756Z,13.10
2018-08-06T01:57:35.347Z,14.10
2018-08-06T02:00:10.779Z,13.38
2018-08-06T02:02:42.302Z,13.13
2018-08-06T02:05:13.840Z,13.40
2018-08-06T02:07:45.414Z,13.00
2018-08-06T02:10:17.011Z,14.53
2018-08-06T02:12:48.625Z,13.58
2018-08-06T02:15:20.719Z,13.88
2018-08-06T02:17:52.243Z,14.75
2018-08-06T02:20:23.872Z,14.85
2018-08-06T02:22:55.356Z,14.93
2018-08-06T02:25:27.102Z,14.30
2018-08-06T02:27:58.840Z,14.13
2018-08-06T02:30:30.412Z,14.33
2018-08-06T02:33:02.370Z,14.58
2018-08-06T02:35:33.709Z,14.43
2018-08-06T02:38:05.075Z,14.65
2018-08-06T02:40:36.737Z,13.08
2018-08-06T02:43:08.296Z,14.47
2018-08-06T02:45:39.823Z,14.05
2018-08-06T02:48:11.379Z,14.30
2018-08-06T02:50:42.816Z,14.38
2018-08-06T02:53:14.391Z,14.00
2018-08-06T02:55:46.012Z,15.05
2018-08-06T02:58:17.387Z,14.35
2018-08-06T03:00:48.840Z,17.48
2018-08-06T03:03:21.252Z,13.88
2018-08-06T03:05:52.855Z,14.25
2018-08-06T03:08:24.296Z,14.10
2018-08-06T03:10:55.768Z,14.25
2018-08-06T03:13:27.227Z,13.75
2018-08-06T03:15:58.805Z,14.45
2018-08-06T03:18:30.541Z,13.95
2018-08-06T03:21:02.340Z,13.30
2018-08-06T03:23:33.856Z,13.95
2018-08-06T03:26:05.451Z,13.05
2018-08-06T03:28:37.232Z,13.98
2018-08-06T03:31:08.579Z,14.68
2018-08-06T03:33:40.376Z,15.18
2018-08-06T03:36:12.167Z,14.78
2018-08-06T03:38:43.447Z,18.82
2018-08-06T03:41:14.894Z,15.80
2018-08-06T03:43:46.571Z,14.10
2018-08-06T03:46:18.103Z,14.23
2018-08-06T03:48:49.729Z,14.13
2018-08-06T03:51:21.186Z,16.65
2018-08-06T03:53:52.551Z,14.43
2018-08-06T03:56:24.112Z,13.78
2018-08-06T03:58:55.605Z,13.10
2018-08-06T04:01:27.491Z,15.70
2018-08-06T04:03:59.018Z,16.30
2018-08-06T04:06:30.709Z,13.43
2018-08-06T04:09:02.401Z,17.55
2018-08-06T04:11:34.315Z,14.47
2018-08-06T04:14:05.622Z,13.68
2018-08-06T04:16:42.205Z,14.68
2018-08-06T04:19:14.628Z,15.38
2018-08-06T04:21:46.368Z,14.07
2018-08-06T04:24:17.358Z,14.53
2018-08-06T04:26:48.923Z,13.68
2018-08-06T04:29:20.913Z,14.60
2018-08-06T04:31:52.076Z,13.53
2018-08-06T04:34:23.472Z,14.90
2018-08-06T04:36:55.410Z,13.93
2018-08-06T04:39:27.129Z,15.00
2018-08-06T04:41:58.691Z,13.10
2018-08-06T04:44:30.540Z,13.28
2018-08-06T04:47:02.180Z,13.60
2018-08-06T04:49:33.926Z,12.73
2018-08-06T04:52:05.670Z,12.33
2018-08-06T04:54:37.235Z,12.07
2018-08-06T04:57:08.685Z,12.15
2018-08-06T04:59:40.509Z,12.13
2018-08-06T05:02:12.078Z,12.70
2018-08-06T05:04:43.757Z,13.22
2018-08-06T05:07:15.301Z,12.60
2018-08-06T05:09:46.307Z,12.47
2018-08-06T05:12:17.638Z,11.38
2018-08-06T05:14:49.207Z,13.25
2018-08-06T05:17:20.650Z,15.15
2018-08-06T05:19:52.073Z,13.83
2018-08-06T05:22:23.660Z,14.95
2018-08-06T05:24:55.145Z,14.50
2018-08-06T05:27:26.431Z,12.53
2018-08-06T05:29:57.870Z,12.15
2018-08-06T05:32:29.465Z,11.60
2018-08-06T05:35:00.946Z,11.75
2018-08-06T05:37:32.602Z,13.58
2018-08-06T05:40:04.279Z,15.28
2018-08-06T05:42:35.694Z,10.85
2018-08-06T05:45:09.708Z,10.68
2018-08-06T05:47:41.258Z,11.28
2018-08-06T05:50:14.358Z,10.72
2018-08-06T05:52:46.138Z,10.75
2018-08-06T05:55:17.582Z,11.00
2018-08-06T05:57:49.149Z,10.15
2018-08-06T06:00:20.930Z,9.45
2018-08-06T06:02:52.527Z,9.48
2018-08-06T06:05:24.156Z,9.23
2018-08-06T06:07:55.623Z,10.03
2018-08-06T06:10:27.018Z,8.78
2018-08-06T06:12:58.330Z,8.33
2018-08-06T06:15:29.718Z,40.75
2018-08-06T06:18:01.083Z,12.60
2018-08-06T06:20:32.560Z,9.45
2018-08-06T06:23:04.165Z,11.00
2018-08-06T06:25:35.688Z,8.08
2018-08-06T06:28:07.255Z,9.43
2018-08-06T06:30:38.574Z,9.83
2018-08-06T06:33:10.190Z,9.03
2018-08-06T06:35:41.540Z,9.13
2018-08-06T06:38:13.093Z,8.70
2018-08-06T06:40:44.635Z,10.05
2018-08-06T06:43:16.020Z,9.60
2018-08-06T06:45:47.279Z,8.70
2018-08-06T06:48:18.611Z,9.63
2018-08-06T06:50:50.090Z,9.63
2018-08-06T06:53:21.695Z,9.20
2018-08-06T06:55:53.087Z,10.30
2018-08-06T06:58:24.600Z,8.00
2018-08-06T07:00:56.087Z,8.73
2018-08-06T07:03:27.512Z,9.30
2018-08-06T07:05:59.180Z,9.13
2018-08-06T07:08:31.217Z,9.23
2018-08-06T07:11:02.747Z,9.03
2018-08-06T07:13:34.192Z,8.13
2018-08-06T07:16:05.715Z,8.00
2018-08-06T07:18:37.631Z,8.18
2018-08-06T07:21:09.065Z,8.13
2018-08-06T07:23:40.534Z,7.97
2018-08-06T07:26:12.122Z,8.05
2018-08-06T07:28:43.813Z,7.60
2018-08-06T07:31:15.128Z,8.33
2018-08-06T07:33:46.784Z,7.62
2018-08-06T07:36:18.271Z,7.97
2018-08-06T07:38:49.758Z,8.43
2018-08-06T07:41:21.166Z,8.43
2018-08-06T07:43:52.714Z,8.13
2018-08-06T07:46:24.318Z,8.55
2018-08-06T07:48:55.829Z,7.25
2018-08-06T07:51:27.348Z,8.35
2018-08-06T07:53:58.776Z,7.20
2018-08-06T07:56:30.434Z,7.85
2018-08-06T07:59:01.789Z,8.78
2018-08-06T08:01:33.292Z,8.38
2018-08-06T08:04:04.141Z,8.48
2018-08-06T08:06:35.560Z,8.35
2018-08-06T08:09:10.859Z,9.18
2018-08-06T08:11:42.886Z,9.48
2018-08-06T08:14:14.458Z,8.88
2018-08-06T08:16:45.833Z,9.38
2018-08-06T08:19:17.349Z,8.65
2018-08-06T08:21:48.840Z,9.55
2018-08-06T08:24:20.700Z,14.20
2018-08-06T08:26:52.157Z,8.60
2018-08-06T08:29:23.624Z,8.70
2018-08-06T08:31:55.163Z,7.92
2018-08-06T08:34:26.722Z,8.53
2018-08-06T08:36:58.337Z,7.50
2018-08-06T08:39:29.855Z,7.87
2018-08-06T08:42:01.264Z,8.03
2018-08-06T08:44:32.704Z,8.25
2018-08-06T08:47:04.203Z,8.78
2018-08-06T08:49:35.676Z,8.73
2018-08-06T08:52:07.218Z,8.00
2018-08-06T08:54:38.870Z,8.10
2018-08-06T08:57:10.835Z,8.03
2018-08-06T08:59:42.341Z,9.35
2018-08-06T09:02:13.720Z,9.20
2018-08-06T09:04:45.157Z,7.72
2018-08-06T09:07:16.834Z,7.45
2018-08-06T09:09:48.155Z,7.60
2018-08-06T09:12:19.718Z,6.90
2018-08-06T09:14:51.279Z,9.30
2018-08-06T09:17:23.194Z,7.15
2018-08-06T09:19:54.600Z,6.50
2018-08-06T09:22:26.158Z,6.55
2018-08-06T09:24:57.835Z,6.33
2018-08-06T09:27:29.477Z,6.45
2018-08-06T09:30:00.974Z,6.25
2018-08-06T09:32:32.714Z,5.58
2018-08-06T09:35:04.396Z,5.42
2018-08-06T09:37:35.916Z,5.75
2018-08-06T09:40:11.117Z,5.72
2018-08-06T09:42:43.278Z,5.65
2018-08-06T09:45:16.110Z,6.10
2018-08-06T09:47:48.630Z,5.45
2018-08-06T09:50:20.884Z,6.05
2018-08-06T09:52:53.293Z,6.40
2018-08-06T09:55:27.106Z,5.95
2018-08-06T09:57:58.808Z,6.20
2018-08-06T10:00:35.002Z,6.53
2018-08-06T10:03:06.690Z,6.25
2018-08-06T10:05:38.178Z,7.33
2018-08-06T10:08:09.796Z,6.78
2018-08-06T10:10:41.082Z,6.03
2018-08-06T10:13:12.601Z,6.67
2018-08-06T10:15:43.979Z,6.58
2018-08-06T10:18:15.592Z,5.50
2018-08-06T10:20:47.038Z,5.20
2018-08-06T10:23:18.622Z,7.12
2018-08-06T10:25:50.251Z,6.17
2018-08-06T10:28:21.891Z,5.15
2018-08-06T10:30:53.467Z,5.50
2018-08-06T10:33:24.806Z,5.35
2018-08-06T10:35:56.737Z,6.62
2018-08-06T10:38:28.207Z,5.92
2018-08-06T10:40:59.679Z,6.47
2018-08-06T10:43:31.258Z,6.12
2018-08-06T10:46:02.594Z,5.17
2018-08-06T10:48:34.118Z,5.20
2018-08-06T10:51:05.569Z,4.53
2018-08-06T10:53:37.175Z,5.47
2018-08-06T10:56:08.799Z,5.20
2018-08-06T10:58:40.320Z,5.30
2018-08-06T11:01:11.709Z,5.87
2018-08-06T11:03:43.156Z,5.87
2018-08-06T11:06:14.750Z,7.40
2018-08-06T11:08:46.614Z,5.28
2018-08-06T11:11:18.049Z,5.75
2018-08-06T11:13:49.927Z,5.47
2018-08-06T11:16:21.746Z,5.90
2018-08-06T11:18:53.214Z,4.78
2018-08-06T11:21:24.712Z,4.85
2018-08-06T11:23:56.332Z,4.85
2018-08-06T11:26:27.756Z,4.62
2018-08-06T11:28:59.280Z,6.10
2018-08-06T11:31:30.740Z,6.25
2018-08-06T11:34:02.257Z,4.42
2018-08-06T11:36:33.683Z,4.92
2018-08-06T11:39:06.853Z,3.77
2018-08-06T11:41:38.614Z,4.40
2018-08-06T11:44:10.940Z,4.37
2018-08-06T11:46:42.618Z,4.25
2018-08-06T11:49:13.995Z,4.12
2018-08-06T11:51:45.334Z,4.83
2018-08-06T11:54:17.027Z,7.78
2018-08-06T11:56:48.453Z,3.75
2018-08-06T11:59:19.907Z,4.60
2018-08-06T12:01:52.370Z,4.40
2018-08-06T12:04:24.030Z,4.50
2018-08-06T12:06:55.883Z,3.80
2018-08-06T12:09:27.243Z,4.30
2018-08-06T12:11:58.541Z,4.17
2018-08-06T12:14:29.355Z,5.37
2018-08-06T12:17:00.983Z,4.03
2018-08-06T12:19:32.444Z,3.65
2018-08-06T12:22:03.919Z,5.08
2018-08-06T12:24:35.341Z,4.00
2018-08-06T12:27:07.284Z,3.62
2018-08-06T12:29:38.741Z,3.80
2018-08-06T12:32:10.544Z,4.47
2018-08-06T12:34:42.227Z,3.60
2018-08-06T12:37:13.677Z,4.05
2018-08-06T12:39:45.256Z,4.03
2018-08-06T12:42:16.880Z,4.67
2018-08-06T12:44:48.374Z,3.92
2018-08-06T12:47:19.698Z,4.17
2018-08-06T12:49:51.048Z,3.75
2018-08-06T12:52:22.519Z,4.70
2018-08-06T12:54:54.006Z,3.85
2018-08-06T12:57:25.391Z,5.67
2018-08-06T12:59:56.623Z,4.50
2018-08-06T13:02:28.491Z,4.08
2018-08-06T13:05:00.046Z,3.45
2018-08-06T13:07:32.592Z,3.80
2018-08-06T13:10:04.282Z,4.05
2018-08-06T13:12:36.925Z,4.12
2018-08-06T13:15:10.421Z,4.78
2018-08-06T13:17:41.856Z,4.50
2018-08-06T13:20:13.707Z,5.22
2018-08-06T13:22:45.223Z,4.12
2018-08-06T13:25:16.501Z,5.67
2018-08-06T13:27:47.914Z,3.95
2018-08-06T13:30:19.298Z,4.65
2018-08-06T13:32:50.799Z,3.92
2018-08-06T13:35:22.086Z,4.37
2018-08-06T13:37:53.687Z,5.35
2018-08-06T13:40:25.145Z,3.62
2018-08-06T13:42:56.806Z,3.00
2018-08-06T13:45:28.154Z,3.80
2018-08-06T13:47:59.551Z,6.45
2018-08-06T13:50:31.170Z,6.70
2018-08-06T13:53:03.048Z,3.47
2018-08-06T13:55:34.603Z,5.67
2018-08-06T13:58:06.468Z,3.87
2018-08-06T14:00:38.315Z,3.55
2018-08-06T14:03:10.067Z,11.55
2018-08-06T14:05:41.819Z,3.40
2018-08-06T14:08:13.171Z,6.42
2018-08-06T14:10:44.844Z,4.90
2018-08-06T14:13:16.581Z,3.60
2018-08-06T14:15:48.159Z,3.98
2018-08-06T14:18:19.965Z,4.25
2018-08-06T14:20:51.475Z,5.28
2018-08-06T14:23:23.127Z,3.45
2018-08-06T14:25:54.719Z,9.20
2018-08-06T14:28:26.323Z,4.15
2018-08-06T14:30:57.997Z,4.15
2018-08-06T14:33:29.785Z,5.28
2018-08-06T14:36:01.207Z,4.35
2018-08-06T14:38:32.628Z,3.33
2018-08-06T14:41:04.579Z,6.08
2018-08-06T14:43:35.571Z,4.70
2018-08-06T14:46:07.305Z,3.87
2018-08-06T14:48:38.829Z,3.50
2018-08-06T14:51:11.289Z,3.55
2018-08-06T14:53:42.772Z,4.80
2018-08-06T14:56:14.303Z,6.15
2018-08-06T14:58:45.688Z,3.80
2018-08-06T15:01:17.118Z,3.40
2018-08-06T15:03:48.860Z,3.47
2018-08-06T15:06:20.629Z,3.98
2018-08-06T15:08:52.133Z,3.58
2018-08-06T15:11:23.861Z,3.55
2018-08-06T15:13:55.492Z,4.60
2018-08-06T15:16:27.117Z,4.83
2018-08-06T15:18:58.589Z,3.62
2018-08-06T15:21:30.111Z,3.50
2018-08-06T15:24:01.559Z,3.83
2018-08-06T15:26:33.017Z,3.65
2018-08-06T15:29:04.984Z,3.20
2018-08-06T15:31:36.448Z,4.35
2018-08-06T15:34:07.681Z,2.98
2018-08-06T15:36:39.184Z,5.35
2018-08-06T15:39:15.531Z,4.20
2018-08-06T15:41:46.891Z,4.28
2018-08-06T15:44:18.341Z,4.15
2018-08-06T15:46:50.189Z,3.40
2018-08-06T15:49:21.811Z,3.50
2018-08-06T15:51:53.147Z,3.55
2018-08-06T15:54:24.353Z,3.02
2018-08-06T15:56:55.627Z,5.67
2018-08-06T15:59:27.019Z,3.02
2018-08-06T16:01:58.827Z,4.22
2018-08-06T16:04:30.316Z,4.25
2018-08-06T16:07:01.822Z,3.58
2018-08-06T16:09:33.302Z,4.53
2018-08-06T16:12:04.855Z,3.25
2018-08-06T16:14:36.272Z,3.55
2018-08-06T16:17:07.945Z,5.28
2018-08-06T16:19:39.228Z,5.65
2018-08-06T16:22:10.618Z,2.70
2018-08-06T16:24:42.136Z,3.60
2018-08-06T16:27:14.108Z,4.15
2018-08-06T16:29:45.449Z,3.70
2018-08-06T16:32:17.198Z,3.50
2018-08-06T16:34:48.989Z,3.67
2018-08-06T16:37:20.543Z,3.25
2018-08-06T16:39:52.179Z,6.95
2018-08-06T16:42:23.846Z,4.53
2018-08-06T16:44:55.486Z,3.65
2018-08-06T16:47:27.150Z,3.72
2018-08-06T16:49:58.734Z,3.10
2018-08-06T16:52:30.396Z,3.37
2018-08-06T16:55:02.056Z,8.05
2018-08-06T16:57:33.750Z,4.12
2018-08-06T17:00:06.976Z,2.83
2018-08-06T17:02:38.486Z,2.95
2018-08-06T17:05:12.523Z,3.55
2018-08-06T17:07:45.268Z,3.50
2018-08-06T17:10:18.478Z,4.22
2018-08-06T17:12:52.702Z,7.67
2018-08-06T17:15:24.475Z,4.35
2018-08-06T17:17:57.081Z,5.55
2018-08-06T17:20:28.579Z,4.45
2018-08-06T17:23:00.249Z,2.50
2018-08-06T17:25:31.918Z,3.35
2018-08-06T17:28:03.256Z,3.75
2018-08-06T17:30:34.618Z,2.80
2018-08-06T17:33:06.384Z,9.55
2018-08-06T17:35:37.912Z,4.42
2018-08-06T17:38:09.302Z,2.50
2018-08-06T17:40:40.695Z,2.37
2018-08-06T17:43:12.577Z,2.37
2018-08-06T17:45:44.296Z,3.33
2018-08-06T17:48:15.873Z,4.37
2018-08-06T17:50:47.215Z,3.00
2018-08-06T17:53:18.646Z,4.50
2018-08-06T17:55:50.148Z,3.22
2018-08-06T17:58:21.783Z,4.08
2018-08-06T18:00:53.538Z,9.63
2018-08-06T18:03:25.119Z,4.05
2018-08-06T18:05:56.678Z,3.22
2018-08-06T18:08:28.434Z,2.72
2018-08-06T18:11:00.063Z,2.98
2018-08-06T18:13:31.778Z,3.27
2018-08-06T18:16:03.293Z,2.67
2018-08-06T18:18:34.915Z,3.65
2018-08-06T18:21:06.679Z,4.00
2018-08-06T18:23:38.456Z,7.05
2018-08-06T18:26:10.029Z,5.17
2018-08-06T18:28:41.573Z,4.42
2018-08-06T18:31:13.095Z,4.37
2018-08-06T18:33:44.756Z,7.47
2018-08-06T18:36:16.522Z,3.02
2018-08-06T18:38:48.079Z,3.67
2018-08-06T18:41:20.390Z,3.92
2018-08-06T18:43:52.080Z,3.15
2018-08-06T18:46:24.128Z,3.00
2018-08-06T18:48:55.667Z,3.27
2018-08-06T18:51:27.588Z,2.83
2018-08-06T18:53:59.483Z,2.70
2018-08-06T18:56:30.945Z,2.42
2018-08-06T18:59:02.497Z,3.80
2018-08-06T19:01:34.569Z,3.60
2018-08-06T19:04:06.301Z,7.97
2018-08-06T19:06:38.167Z,3.70
2018-08-06T19:09:16.910Z,4.37
2018-08-06T19:11:48.442Z,3.05
2018-08-06T19:14:22.816Z,4.62
2018-08-06T19:16:54.501Z,3.17
2018-08-06T19:19:27.671Z,4.15
2018-08-06T19:21:59.605Z,2.47
2018-08-06T19:24:35.391Z,2.50
2018-08-06T19:27:08.414Z,7.15
2018-08-06T19:29:40.907Z,3.33
2018-08-06T19:32:14.990Z,2.47
2018-08-06T19:34:46.993Z,3.35
2018-08-06T19:37:23.880Z,2.85
2018-08-06T19:39:55.891Z,4.20
2018-08-06T19:42:31.658Z,3.72
2018-08-06T19:45:03.572Z,3.65
2018-08-06T19:47:35.320Z,3.50
2018-08-06T19:50:12.557Z,3.25
2018-08-06T19:52:44.258Z,2.85
2018-08-06T19:55:20.933Z,3.25
2018-08-06T19:57:52.697Z,3.12
2018-08-06T20:00:24.376Z,2.80
2018-08-06T20:02:55.795Z,3.30
2018-08-06T20:05:27.625Z,3.00
2018-08-06T20:07:59.112Z,2.83
2018-08-06T20:10:30.741Z,15.53
2018-08-06T20:13:02.447Z,55.17
2018-08-06T20:15:34.167Z,16.82
2018-08-06T20:18:05.780Z,8.25
2018-08-06T20:20:37.374Z,6.70
2018-08-06T20:23:09.035Z,7.70
2018-08-06T20:25:40.710Z,4.92
2018-08-06T20:28:12.480Z,4.78
2018-08-06T20:30:44.143Z,4.17
2018-08-06T20:33:16.171Z,3.80
2018-08-06T20:35:47.548Z,5.10
2018-08-06T20:38:19.164Z,3.22
2018-08-06T20:40:50.755Z,3.12
2018-08-06T20:43:22.436Z,3.37
2018-08-06T20:45:54.041Z,3.22
2018-08-06T20:48:25.661Z,3.77
2018-08-06T20:50:57.248Z,3.98
2018-08-06T20:53:28.864Z,6.78
2018-08-06T20:56:00.484Z,4.37
2018-08-06T20:58:32.114Z,26.57
2018-08-06T21:01:03.710Z,39.08
2018-08-06T21:03:35.629Z,17.87
2018-08-06T21:06:07.209Z,8.90
2018-08-06T21:08:38.626Z,7.08
2018-08-06T21:11:10.601Z,6.67
2018-08-06T21:13:43.391Z,5.20
2018-08-06T21:16:14.837Z,4.50
2018-08-06T21:18:46.365Z,3.80
2018-08-06T21:21:18.030Z,5.03
2018-08-06T21:23:49.583Z,4.28
2018-08-06T21:26:21.241Z,6.05
2018-08-06T21:28:52.762Z,8.23
2018-08-06T21:31:24.213Z,5.35
2018-08-06T21:33:55.781Z,4.00
2018-08-06T21:36:26.730Z,3.27
2018-08-06T21:38:58.331Z,5.67
2018-08-06T21:41:29.785Z,3.02
2018-08-06T21:44:01.369Z,2.98
2018-08-06T21:46:33.084Z,2.65
2018-08-06T21:49:04.720Z,2.55
2018-08-06T21:51:36.465Z,3.25
2018-08-06T21:54:08.246Z,4.62
2018-08-06T21:56:39.756Z,5.50
2018-08-06T21:59:11.133Z,6.72
2018-08-06T22:01:43.062Z,2.80
2018-08-06T22:04:14.376Z,2.85
2018-08-06T22:06:45.815Z,3.10
2018-08-06T22:09:17.314Z,3.00
2018-08-06T22:11:48.497Z,2.70
2018-08-06T22:14:20.060Z,2.98
2018-08-06T22:16:51.980Z,3.33
2018-08-06T22:19:23.406Z,2.70
2018-08-06T22:21:54.731Z,2.95
2018-08-06T22:24:26.381Z,3.05
2018-08-06T22:26:58.063Z,3.60
2018-08-06T22:29:28.871Z,3.20
2018-08-06T22:32:00.215Z,3.17
2018-08-06T22:34:31.903Z,4.37
2018-08-06T22:37:03.089Z,3.37
2018-08-06T22:39:34.440Z,3.20
2018-08-06T22:42:05.960Z,3.62
2018-08-06T22:44:37.427Z,4.03
2018-08-06T22:47:08.969Z,4.75
2018-08-06T22:49:40.489Z,3.37
2018-08-06T22:52:12.147Z,4.87
2018-08-06T22:54:43.612Z,3.50
2018-08-06T22:57:15.195Z,3.70
2018-08-06T22:59:46.703Z,3.17
2018-08-06T23:02:18.174Z,2.87
2018-08-06T23:04:49.673Z,5.35
2018-08-06T23:07:21.421Z,7.22
2018-08-06T23:09:52.891Z,3.65
2018-08-06T23:12:24.489Z,3.45
2018-08-06T23:14:56.044Z,3.72
2018-08-06T23:17:27.537Z,4.40
2018-08-06T23:19:59.148Z,3.37
2018-08-06T23:22:30.690Z,3.40
2018-08-06T23:25:02.315Z,3.50
2018-08-06T23:27:34.051Z,3.42
2018-08-06T23:30:06.915Z,3.00
2018-08-06T23:32:38.634Z,3.75
2018-08-06T23:35:11.496Z,3.33
2018-08-06T23:37:44.240Z,3.95
2018-08-06T23:40:15.888Z,4.30
2018-08-06T23:42:47.470Z,3.22
2018-08-06T23:45:19.071Z,3.33
2018-08-06T23:47:50.312Z,2.90
2018-08-06T23:50:21.912Z,3.20
2018-08-06T23:52:53.423Z,3.77
2018-08-06T23:55:24.818Z,3.52
2018-08-06T23:57:56.438Z,3.17
